createdAt,value
2022-07-26T00:01:16.514Z,18.54
2022-07-26T00:03:43.008Z,16.51
2022-07-26T00:06:09.481Z,18.59
2022-07-26T00:08:36.113Z,18.42
2022-07-26T00:11:07.349Z,18.68
2022-07-26T00:13:34.992Z,18.70
2022-07-26T00:16:02.409Z,18.68
2022-07-26T00:18:28.842Z,18.26
2022-07-26T00:20:55.561Z,18.46
2022-07-26T00:23:22.426Z,18.28
2022-07-26T00:25:48.840Z,18.33
2022-07-26T00:28:15.260Z,18.23
2022-07-26T00:30:41.686Z,18.20
2022-07-26T00:33:08.703Z,18.25
2022-07-26T00:35:35.244Z,18.02
2022-07-26T00:38:01.641Z,17.92
2022-07-26T00:40:28.072Z,17.64
2022-07-26T00:42:54.489Z,17.51
2022-07-26T00:45:20.906Z,17.83
2022-07-26T00:47:47.296Z,17.52
2022-07-26T00:50:16.924Z,17.92
2022-07-26T00:52:45.811Z,17.73
2022-07-26T00:55:13.001Z,17.41
2022-07-26T00:57:40.858Z,17.65
2022-07-26T01:00:11.437Z,17.71
2022-07-26T01:02:37.866Z,16.45
2022-07-26T01:05:04.664Z,16.43
2022-07-26T01:07:31.290Z,17.59
2022-07-26T01:09:57.764Z,17.29
2022-07-26T01:12:24.527Z,17.21
2022-07-26T01:14:50.931Z,16.59
2022-07-26T01:17:17.471Z,17.37
2022-07-26T01:19:43.864Z,17.29
2022-07-26T01:22:14.354Z,16.77
2022-07-26T01:24:41.275Z,16.85
2022-07-26T01:27:07.909Z,16.95
2022-07-26T01:29:34.582Z,16.82
2022-07-26T01:32:03.990Z,16.51
2022-07-26T01:34:30.926Z,16.69
2022-07-26T01:36:57.346Z,16.73
2022-07-26T01:39:24.004Z,17.11
2022-07-26T01:41:50.446Z,17.09
2022-07-26T01:44:16.873Z,16.58
2022-07-26T01:46:43.254Z,16.58
2022-07-26T01:49:09.950Z,16.78
2022-07-26T01:51:36.549Z,17.13
2022-07-26T01:54:03.066Z,16.93
2022-07-26T01:56:29.486Z,17.05
2022-07-26T01:58:55.891Z,17.04
2022-07-26T02:01:39.681Z,16.70
2022-07-26T02:04:08.128Z,16.54
2022-07-26T02:06:34.898Z,17.21
2022-07-26T02:09:01.911Z,16.78
2022-07-26T02:11:28.864Z,17.23
2022-07-26T02:13:55.258Z,17.23
2022-07-26T02:16:21.670Z,17.24
2022-07-26T02:18:48.141Z,17.11
2022-07-26T02:21:14.482Z,17.07
2022-07-26T02:23:41.766Z,16.70
2022-07-26T02:26:09.050Z,17.19
2022-07-26T02:28:35.645Z,17.11
2022-07-26T02:31:02.205Z,16.65
2022-07-26T02:33:28.646Z,16.88
2022-07-26T02:35:55.097Z,16.74
2022-07-26T02:38:21.516Z,16.65
2022-07-26T02:40:50.398Z,16.40
2022-07-26T02:43:17.039Z,16.64
2022-07-26T02:45:43.493Z,16.71
2022-07-26T02:48:10.453Z,16.54
2022-07-26T02:50:36.945Z,16.61
2022-07-26T02:53:03.443Z,16.11
2022-07-26T02:55:30.137Z,16.38
2022-07-26T02:57:56.726Z,15.98
2022-07-26T03:00:25.702Z,16.56
2022-07-26T03:02:52.665Z,16.13
2022-07-26T03:05:19.964Z,16.31
2022-07-26T03:07:47.218Z,16.29
2022-07-26T03:10:14.053Z,16.22
2022-07-26T03:12:40.581Z,16.31
2022-07-26T03:15:08.865Z,16.61
2022-07-26T03:17:35.547Z,16.57
2022-07-26T03:20:02.477Z,16.21
2022-07-26T03:22:28.931Z,16.08
2022-07-26T03:24:55.321Z,16.62
2022-07-26T03:27:21.669Z,16.47
2022-07-26T03:29:48.124Z,16.66
2022-07-26T03:32:14.471Z,16.28
2022-07-26T03:34:40.809Z,16.16
2022-07-26T03:37:07.208Z,16.08
2022-07-26T03:39:33.649Z,16.69
2022-07-26T03:42:00.049Z,15.68
2022-07-26T03:44:26.470Z,16.71
2022-07-26T03:46:52.874Z,16.57
2022-07-26T03:49:19.539Z,16.58
2022-07-26T03:51:46.092Z,16.74
2022-07-26T03:54:12.815Z,16.87
2022-07-26T03:56:40.366Z,16.94
2022-07-26T03:59:08.690Z,16.59
2022-07-26T04:01:41.593Z,16.59
2022-07-26T04:04:09.777Z,16.92
2022-07-26T04:06:37.117Z,17.09
2022-07-26T04:09:06.089Z,17.11
2022-07-26T04:11:33.877Z,17.07
2022-07-26T04:14:00.811Z,16.62
2022-07-26T04:16:27.610Z,17.13
2022-07-26T04:18:54.413Z,16.64
2022-07-26T04:21:20.830Z,16.41
2022-07-26T04:23:51.106Z,17.21
2022-07-26T04:26:17.983Z,17.25
2022-07-26T04:28:44.370Z,17.27
2022-07-26T04:31:10.807Z,17.22
2022-07-26T04:33:37.203Z,16.97
2022-07-26T04:36:03.896Z,15.65
2022-07-26T04:38:30.763Z,17.26
2022-07-26T04:40:57.997Z,17.31
2022-07-26T04:43:25.399Z,16.96
2022-07-26T04:45:51.968Z,16.90
2022-07-26T04:48:18.573Z,16.82
2022-07-26T04:50:45.015Z,17.48
2022-07-26T04:53:11.546Z,17.12
2022-07-26T04:55:38.621Z,17.08
2022-07-26T04:58:05.574Z,17.43
2022-07-26T05:00:32.113Z,17.50
2022-07-26T05:03:00.018Z,17.55
2022-07-26T05:05:28.647Z,17.54
2022-07-26T05:07:58.121Z,17.63
2022-07-26T05:10:35.096Z,17.29
2022-07-26T05:13:03.967Z,17.71
2022-07-26T05:15:35.257Z,17.77
2022-07-26T05:18:08.122Z,17.85
2022-07-26T05:20:36.678Z,17.94
2022-07-26T05:23:03.828Z,17.72
2022-07-26T05:25:30.295Z,17.74
2022-07-26T05:27:56.862Z,17.78
2022-07-26T05:30:23.403Z,18.11
2022-07-26T05:32:50.158Z,17.89
2022-07-26T05:35:16.610Z,17.87
2022-07-26T05:37:43.332Z,18.37
2022-07-26T05:40:11.007Z,18.47
2022-07-26T05:42:37.850Z,18.44
2022-07-26T05:45:05.585Z,18.46
2022-07-26T05:47:32.137Z,18.64
2022-07-26T05:49:59.141Z,18.65
2022-07-26T05:52:25.767Z,18.59
2022-07-26T05:54:52.222Z,18.68
2022-07-26T05:57:18.589Z,18.04
2022-07-26T05:59:44.962Z,18.31
2022-07-26T06:02:11.425Z,18.69
2022-07-26T06:04:38.104Z,18.75
2022-07-26T06:07:04.535Z,18.48
2022-07-26T06:09:31.664Z,18.93
2022-07-26T06:11:58.098Z,19.03
2022-07-26T06:14:24.637Z,18.87
2022-07-26T06:16:51.454Z,19.03
2022-07-26T06:19:17.958Z,19.03
2022-07-26T06:21:45.940Z,19.17
2022-07-26T06:24:12.849Z,18.99
2022-07-26T06:26:39.622Z,19.16
2022-07-26T06:29:06.149Z,19.24
2022-07-26T06:31:32.688Z,18.92
2022-07-26T06:33:59.287Z,19.25
2022-07-26T06:36:30.337Z,18.81
2022-07-26T06:38:57.361Z,19.37
2022-07-26T06:41:24.103Z,19.35
2022-07-26T06:43:50.479Z,19.39
2022-07-26T06:46:16.992Z,19.46
2022-07-26T06:48:47.417Z,19.00
2022-07-26T06:51:18.997Z,19.44
2022-07-26T06:53:45.362Z,19.36
2022-07-26T06:56:14.774Z,18.38
2022-07-26T06:58:42.330Z,19.45
2022-07-26T07:01:08.768Z,19.44
2022-07-26T07:03:35.686Z,19.67
2022-07-26T07:06:02.114Z,19.30
2022-07-26T07:08:29.008Z,19.49
2022-07-26T07:10:56.650Z,19.77
2022-07-26T07:13:23.085Z,19.73
2022-07-26T07:15:49.467Z,19.94
2022-07-26T07:18:15.916Z,20.41
2022-07-26T07:20:42.304Z,19.60
2022-07-26T07:23:08.737Z,20.42
2022-07-26T07:25:35.232Z,20.53
2022-07-26T07:28:01.740Z,20.47
2022-07-26T07:30:28.261Z,20.57
2022-07-26T07:32:55.663Z,19.95
2022-07-26T07:35:23.309Z,20.33
2022-07-26T07:37:52.569Z,20.56
2022-07-26T07:40:19.762Z,20.65
2022-07-26T07:42:46.247Z,20.44
2022-07-26T07:45:12.709Z,20.92
2022-07-26T07:47:39.111Z,20.83
2022-07-26T07:50:06.165Z,20.95
2022-07-26T07:52:32.630Z,21.24
2022-07-26T07:55:21.858Z,21.21
2022-07-26T07:57:45.430Z,21.14
2022-07-26T08:00:15.989Z,21.12
2022-07-26T08:02:42.637Z,20.83
2022-07-26T08:05:14.159Z,20.82
2022-07-26T08:07:41.001Z,20.92
2022-07-26T08:10:08.638Z,21.33
2022-07-26T08:12:35.085Z,21.68
2022-07-26T08:15:02.330Z,21.41
2022-07-26T08:17:34.235Z,21.86
2022-07-26T08:20:01.800Z,21.58
2022-07-26T08:22:28.242Z,22.17
2022-07-26T08:24:54.601Z,22.00
2022-07-26T08:27:21.033Z,21.99
2022-07-26T08:29:47.458Z,21.63
2022-07-26T08:32:13.981Z,22.57
2022-07-26T08:34:40.442Z,22.64
2022-07-26T08:37:17.099Z,22.45
2022-07-26T08:39:44.541Z,22.54
2022-07-26T08:42:15.840Z,22.94
2022-07-26T08:44:46.333Z,22.62
2022-07-26T08:47:17.575Z,22.25
2022-07-26T08:50:01.904Z,22.59
2022-07-26T08:52:29.200Z,22.68
2022-07-26T08:54:55.586Z,22.97
2022-07-26T08:57:22.055Z,22.01
2022-07-26T09:00:18.779Z,22.74
2022-07-26T09:02:46.055Z,22.40
2022-07-26T09:05:13.307Z,22.50
2022-07-26T09:07:40.265Z,22.84
2022-07-26T09:10:10.221Z,22.87
2022-07-26T09:12:37.507Z,23.18
2022-07-26T09:15:05.937Z,23.64
2022-07-26T09:17:41.938Z,23.62
2022-07-26T09:20:10.378Z,23.33
2022-07-26T09:22:38.777Z,23.40
2022-07-26T09:25:20.708Z,22.91
2022-07-26T09:27:47.237Z,23.45
2022-07-26T09:30:13.963Z,23.38
2022-07-26T09:32:40.498Z,24.18
2022-07-26T09:35:45.300Z,24.55
2022-07-26T09:38:12.931Z,24.77
2022-07-26T09:40:39.361Z,24.54
2022-07-26T09:43:07.490Z,24.87
2022-07-26T09:45:36.775Z,24.51
2022-07-26T09:48:04.390Z,24.77
2022-07-26T09:50:32.842Z,25.08
2022-07-26T09:53:08.457Z,25.13
2022-07-26T09:55:44.589Z,25.47
2022-07-26T09:58:16.676Z,24.99
2022-07-26T10:00:44.020Z,25.26
2022-07-26T10:03:10.611Z,24.82
2022-07-26T10:05:37.788Z,25.33
2022-07-26T10:08:06.295Z,25.97
2022-07-26T10:10:50.287Z,26.61
2022-07-26T10:13:17.417Z,26.02
2022-07-26T10:15:49.137Z,25.93
2022-07-26T10:18:38.016Z,25.26
2022-07-26T10:21:16.669Z,24.97
2022-07-26T10:23:46.060Z,24.60
2022-07-26T10:26:31.076Z,24.12
2022-07-26T10:29:15.901Z,23.97
2022-07-26T10:32:02.497Z,24.00
2022-07-26T10:34:38.493Z,24.20
2022-07-26T10:37:20.193Z,24.63
2022-07-26T10:39:46.639Z,24.12
2022-07-26T10:42:13.005Z,25.01
2022-07-26T10:44:41.976Z,25.05
2022-07-26T10:47:08.293Z,25.74
2022-07-26T10:49:39.990Z,25.46
2022-07-26T10:52:07.677Z,25.25
2022-07-26T10:54:57.141Z,25.28
2022-07-26T10:57:24.306Z,25.24
2022-07-26T10:59:56.305Z,24.97
2022-07-26T11:02:26.416Z,24.75
2022-07-26T11:05:14.850Z,25.48
2022-07-26T11:08:13.520Z,25.58
2022-07-26T11:10:42.469Z,25.78
2022-07-26T11:13:18.044Z,26.03
2022-07-26T11:15:49.795Z,25.91
2022-07-26T11:18:19.279Z,26.34
2022-07-26T11:20:48.282Z,26.43
2022-07-26T11:23:32.678Z,26.33
2022-07-26T11:26:19.382Z,25.88
2022-07-26T11:28:50.309Z,25.70
2022-07-26T11:31:17.982Z,25.21
2022-07-26T11:33:50.788Z,24.66
2022-07-26T11:36:38.357Z,23.94
2022-07-26T11:39:07.547Z,23.84
2022-07-26T11:41:35.192Z,23.22
2022-07-26T11:44:02.785Z,23.88
2022-07-26T11:46:48.285Z,23.66
2022-07-26T11:49:36.223Z,24.01
2022-07-26T11:52:12.010Z,24.34
2022-07-26T11:54:50.183Z,24.17
2022-07-26T11:57:17.802Z,24.45
2022-07-26T11:59:46.533Z,24.83
2022-07-26T12:02:14.339Z,25.00
2022-07-26T12:04:42.669Z,24.96
2022-07-26T12:07:11.445Z,25.24
2022-07-26T12:09:40.607Z,24.88
2022-07-26T12:12:19.663Z,24.80
2022-07-26T12:15:07.035Z,24.37
2022-07-26T12:17:35.552Z,23.82
2022-07-26T12:20:12.612Z,24.52
2022-07-26T12:22:39.280Z,24.15
2022-07-26T12:25:06.242Z,24.53
2022-07-26T12:27:33.638Z,24.19
2022-07-26T12:30:03.198Z,24.20
2022-07-26T12:32:43.480Z,23.85
2022-07-26T12:35:11.163Z,23.73
2022-07-26T12:37:48.227Z,23.60
2022-07-26T12:40:16.295Z,23.39
2022-07-26T12:42:50.042Z,23.08
2022-07-26T12:45:26.438Z,23.17
2022-07-26T12:47:53.890Z,23.37
2022-07-26T12:50:22.833Z,23.17
2022-07-26T12:52:49.635Z,23.29
2022-07-26T12:55:19.314Z,23.45
2022-07-26T12:57:47.891Z,23.37
2022-07-26T13:00:16.273Z,23.41
2022-07-26T13:02:43.541Z,23.79
2022-07-26T13:05:11.018Z,24.02
2022-07-26T13:07:37.721Z,24.91
2022-07-26T13:10:32.023Z,23.67
2022-07-26T13:12:52.719Z,25.93
2022-07-26T13:15:19.058Z,25.28
2022-07-26T13:17:45.461Z,24.34
2022-07-26T13:20:11.831Z,25.70
2022-07-26T13:22:39.636Z,25.36
2022-07-26T13:25:08.284Z,25.64
2022-07-26T13:27:36.166Z,26.13
2022-07-26T13:30:04.086Z,25.75
2022-07-26T13:32:30.892Z,26.20
2022-07-26T13:34:57.263Z,26.10
2022-07-26T13:37:23.633Z,25.90
2022-07-26T13:39:50.153Z,25.02
2022-07-26T13:42:18.540Z,24.00
2022-07-26T13:44:45.287Z,23.26
2022-07-26T13:47:11.666Z,23.64
2022-07-26T13:49:38.128Z,23.35
2022-07-26T13:52:04.720Z,23.31
2022-07-26T13:54:32.803Z,23.18
2022-07-26T13:57:01.089Z,23.22
2022-07-26T13:59:29.270Z,22.58
2022-07-26T14:01:56.287Z,22.76
2022-07-26T14:04:23.519Z,22.83
2022-07-26T14:06:50.359Z,22.84
2022-07-26T14:09:17.949Z,22.81
2022-07-26T14:11:45.435Z,22.42
2022-07-26T14:14:12.831Z,22.65
2022-07-26T14:16:39.805Z,22.54
2022-07-26T14:19:06.338Z,23.04
2022-07-26T14:21:43.517Z,23.18
2022-07-26T14:24:15.278Z,23.24
2022-07-26T14:26:44.905Z,23.36
2022-07-26T14:29:13.309Z,23.26
2022-07-26T14:31:39.731Z,23.15
2022-07-26T14:34:06.129Z,23.23
2022-07-26T14:36:32.503Z,23.27
2022-07-26T14:38:59.057Z,23.06
2022-07-26T14:41:25.461Z,21.92
2022-07-26T14:43:55.454Z,22.44
2022-07-26T14:46:22.352Z,22.87
2022-07-26T14:48:54.458Z,23.18
2022-07-26T14:51:21.377Z,22.41
2022-07-26T14:53:47.889Z,23.36
2022-07-26T14:56:14.309Z,23.92
2022-07-26T14:58:40.734Z,23.70
2022-07-26T15:01:07.273Z,23.77
2022-07-26T15:03:33.816Z,23.81
2022-07-26T15:06:00.409Z,23.19
2022-07-26T15:08:26.909Z,23.13
2022-07-26T15:10:53.322Z,22.55
2022-07-26T15:13:19.713Z,23.09
2022-07-26T15:15:46.088Z,23.18
2022-07-26T15:18:12.477Z,23.00
2022-07-26T15:20:40.843Z,22.76
2022-07-26T15:23:11.947Z,23.32
2022-07-26T15:25:38.499Z,23.12
2022-07-26T15:28:05.397Z,22.94
2022-07-26T15:30:33.202Z,22.63
2022-07-26T15:33:01.811Z,22.74
2022-07-26T15:35:29.516Z,22.67
2022-07-26T15:37:56.461Z,22.28
2022-07-26T15:40:22.970Z,22.67
2022-07-26T15:42:51.881Z,22.41
2022-07-26T15:45:20.123Z,22.26
2022-07-26T15:48:03.323Z,22.00
2022-07-26T15:50:34.480Z,22.01
2022-07-26T15:53:00.849Z,21.60
2022-07-26T15:55:27.430Z,21.54
2022-07-26T15:57:53.802Z,21.45
2022-07-26T16:00:20.194Z,21.95
2022-07-26T16:02:46.647Z,22.20
2022-07-26T16:05:13.537Z,21.95
2022-07-26T16:07:44.150Z,21.82
2022-07-26T16:10:13.373Z,21.89
2022-07-26T16:12:40.758Z,21.87
2022-07-26T16:15:09.168Z,21.75
2022-07-26T16:17:36.015Z,21.82
2022-07-26T16:20:02.990Z,22.00
2022-07-26T16:22:30.071Z,21.64
2022-07-26T16:24:56.505Z,21.58
2022-07-26T16:27:23.042Z,20.91
2022-07-26T16:29:52.269Z,21.08
2022-07-26T16:32:21.017Z,21.74
2022-07-26T16:34:47.488Z,21.83
2022-07-26T16:37:14.136Z,21.82
2022-07-26T16:39:40.563Z,21.58
2022-07-26T16:42:07.530Z,21.95
2022-07-26T16:44:35.971Z,21.54
2022-07-26T16:47:02.764Z,22.29
2022-07-26T16:49:29.292Z,22.13
2022-07-26T16:51:57.056Z,21.95
2022-07-26T16:54:23.485Z,21.51
2022-07-26T16:56:49.867Z,21.61
2022-07-26T16:59:16.675Z,21.90
2022-07-26T17:01:43.650Z,21.96
2022-07-26T17:04:10.198Z,21.98
2022-07-26T17:06:36.589Z,21.41
2022-07-26T17:09:03.340Z,21.83
2022-07-26T17:11:29.754Z,21.76
2022-07-26T17:13:56.181Z,21.42
2022-07-26T17:16:25.041Z,21.45
2022-07-26T17:18:53.066Z,21.42
2022-07-26T17:21:19.679Z,21.36
2022-07-26T17:23:46.159Z,20.87
2022-07-26T17:26:12.747Z,20.98
2022-07-26T17:28:39.138Z,20.91
2022-07-26T17:31:05.589Z,20.78
2022-07-26T17:33:32.015Z,20.87
2022-07-26T17:35:59.664Z,20.95
2022-07-26T17:38:29.896Z,20.54
2022-07-26T17:40:56.754Z,20.33
2022-07-26T17:43:23.217Z,20.37
2022-07-26T17:45:50.374Z,18.63
2022-07-26T17:48:16.800Z,20.51
2022-07-26T17:50:43.160Z,20.74
2022-07-26T17:53:09.514Z,20.65
2022-07-26T17:55:36.097Z,20.89
2022-07-26T17:58:02.573Z,21.08
2022-07-26T18:00:29.606Z,21.00
2022-07-26T18:02:56.841Z,20.93
2022-07-26T18:05:27.297Z,20.77
2022-07-26T18:07:59.305Z,20.47
2022-07-26T18:10:27.480Z,20.49
2022-07-26T18:12:54.771Z,20.68
2022-07-26T18:15:21.514Z,20.80
2022-07-26T18:17:48.118Z,20.65
2022-07-26T18:20:14.595Z,19.38
2022-07-26T18:22:41.027Z,20.57
2022-07-26T18:25:07.740Z,20.04
2022-07-26T18:27:34.096Z,20.26
2022-07-26T18:30:00.582Z,19.75
2022-07-26T18:32:27.067Z,19.74
2022-07-26T18:34:53.518Z,20.02
2022-07-26T18:37:20.821Z,19.97
2022-07-26T18:39:47.730Z,19.47
2022-07-26T18:42:14.387Z,19.90
2022-07-26T18:44:40.947Z,19.40
2022-07-26T18:47:07.934Z,19.41
2022-07-26T18:49:35.429Z,19.11
2022-07-26T18:52:08.365Z,19.02
2022-07-26T18:54:36.921Z,19.01
2022-07-26T18:57:04.138Z,18.87
2022-07-26T18:59:31.180Z,19.13
2022-07-26T19:01:59.859Z,19.06
2022-07-26T19:04:26.909Z,19.06
2022-07-26T19:06:53.405Z,19.08
2022-07-26T19:09:19.808Z,18.89
2022-07-26T19:11:46.306Z,18.91
2022-07-26T19:14:13.501Z,19.10
2022-07-26T19:16:40.150Z,19.08
2022-07-26T19:19:06.681Z,19.07
2022-07-26T19:21:33.180Z,18.99
2022-07-26T19:23:59.795Z,18.84
2022-07-26T19:26:27.394Z,18.40
2022-07-26T19:28:53.935Z,18.78
2022-07-26T19:31:21.134Z,18.51
2022-07-26T19:33:47.666Z,18.67
2022-07-26T19:36:25.300Z,18.22
2022-07-26T19:38:52.775Z,18.04
2022-07-26T19:41:21.965Z,18.35
2022-07-26T19:43:48.378Z,18.11
2022-07-26T19:46:14.940Z,18.26
2022-07-26T19:48:41.481Z,18.02
2022-07-26T19:51:07.874Z,18.00
2022-07-26T19:53:34.253Z,18.25
2022-07-26T19:56:00.618Z,18.21
2022-07-26T19:58:29.072Z,17.60
2022-07-26T20:00:55.598Z,18.14
2022-07-26T20:03:22.024Z,18.18
2022-07-26T20:05:48.450Z,18.00
2022-07-26T20:08:14.818Z,18.11
2022-07-26T20:10:41.183Z,17.84
2022-07-26T20:13:07.622Z,18.13
2022-07-26T20:15:34.045Z,17.78
2022-07-26T20:18:00.419Z,17.69
2022-07-26T20:20:26.815Z,17.53
2022-07-26T20:22:53.204Z,18.03
2022-07-26T20:25:21.918Z,17.90
2022-07-26T20:27:51.139Z,17.49
2022-07-26T20:30:18.248Z,17.88
2022-07-26T20:32:44.668Z,16.86
2022-07-26T20:35:11.337Z,17.51
2022-07-26T20:37:37.898Z,17.87
2022-07-26T20:40:05.102Z,17.91
2022-07-26T20:42:34.096Z,17.50
2022-07-26T20:45:01.152Z,16.80
2022-07-26T20:47:27.819Z,17.76
2022-07-26T20:49:57.277Z,17.35
2022-07-26T20:52:26.092Z,17.78
2022-07-26T20:54:52.498Z,17.12
2022-07-26T20:57:22.268Z,17.73
2022-07-26T20:59:48.641Z,17.80
2022-07-26T21:02:15.572Z,17.80
2022-07-26T21:04:41.994Z,17.75
2022-07-26T21:07:08.419Z,17.69
2022-07-26T21:09:34.892Z,16.61
2022-07-26T21:12:01.600Z,17.79
2022-07-26T21:14:28.027Z,17.54
2022-07-26T21:16:54.521Z,17.79
2022-07-26T21:19:21.059Z,17.74
2022-07-26T21:21:47.500Z,17.76
2022-07-26T21:24:13.873Z,17.76
2022-07-26T21:26:40.625Z,17.24
2022-07-26T21:29:07.024Z,17.73
2022-07-26T21:31:33.444Z,17.62
2022-07-26T21:33:59.892Z,17.54
2022-07-26T21:36:26.339Z,17.40
2022-07-26T21:38:52.839Z,17.43
2022-07-26T21:41:19.697Z,17.30
2022-07-26T21:43:46.150Z,17.51
2022-07-26T21:46:13.606Z,17.45
2022-07-26T21:48:40.947Z,17.44
2022-07-26T21:51:07.440Z,16.93
2022-07-26T21:53:33.832Z,17.33
2022-07-26T21:56:00.249Z,17.03
2022-07-26T21:58:28.149Z,17.17
2022-07-26T22:01:03.291Z,17.19
2022-07-26T22:03:34.920Z,17.15
2022-07-26T22:06:01.380Z,17.12
2022-07-26T22:08:27.773Z,17.05
2022-07-26T22:10:54.371Z,16.72
2022-07-26T22:13:20.843Z,17.00
2022-07-26T22:15:47.480Z,16.99
2022-07-26T22:18:14.432Z,16.50
2022-07-26T22:20:41.210Z,16.74
2022-07-26T22:23:10.016Z,16.50
2022-07-26T22:25:37.271Z,16.85
2022-07-26T22:28:05.672Z,16.61
2022-07-26T22:30:33.247Z,16.14
2022-07-26T22:33:01.632Z,16.25
2022-07-26T22:35:33.475Z,16.68
2022-07-26T22:38:04.904Z,16.65
2022-07-26T22:40:32.738Z,16.66
2022-07-26T22:42:59.297Z,16.26
2022-07-26T22:45:27.151Z,16.51
2022-07-26T22:47:56.136Z,16.62
2022-07-26T22:50:24.723Z,16.62
2022-07-26T22:52:51.426Z,16.61
2022-07-26T22:55:17.818Z,16.17
2022-07-26T22:57:45.260Z,16.51
2022-07-26T23:00:13.827Z,16.50
2022-07-26T23:02:40.329Z,16.47
2022-07-26T23:05:07.408Z,16.42
2022-07-26T23:07:35.183Z,15.96
2022-07-26T23:10:01.876Z,16.29
2022-07-26T23:12:28.845Z,16.32
2022-07-26T23:14:55.415Z,16.17
2022-07-26T23:17:21.857Z,15.97
2022-07-26T23:19:48.249Z,16.06
2022-07-26T23:22:14.738Z,16.07
2022-07-26T23:24:41.232Z,16.15
2022-07-26T23:27:10.099Z,15.84
2022-07-26T23:29:38.726Z,15.32
2022-07-26T23:32:05.853Z,16.03
2022-07-26T23:34:34.805Z,15.99
2022-07-26T23:37:01.286Z,15.85
2022-07-26T23:39:27.694Z,15.77
2022-07-26T23:41:54.063Z,15.88
2022-07-26T23:44:20.476Z,15.50
2022-07-26T23:46:46.859Z,15.78
2022-07-26T23:49:13.712Z,15.55
2022-07-26T23:51:40.568Z,15.67
2022-07-26T23:54:07.019Z,15.32
2022-07-26T23:56:33.571Z,15.26
2022-07-26T23:58:59.954Z,15.48
